Kegelman AF Aux Field


Codes: KCKA/CKA
Name: Kegelman AF Aux Field
City: Cherokee
Country: United States
Elevation: 1202 ft.
Wikipedia:

Photos at Kegelman AF Aux Field


   Photos courtesy of SpottingLog. You can add your own sightings and photos by signing up for a free trial today.



No photos found.

Weather at Kegelman AF Aux Field


Time (UTC)DescriptionTempratureWindCloud coverageVisibilityPressureHumidity
15-Apr-2024 18:00Overcast Clouds24°C18 mph, S100%10000m1006hPa36%
15-Apr-2024 21:00Overcast Clouds26°C22 mph, S100%10000m1004hPa47%
16-Apr-2024 00:00Overcast Clouds24°C22 mph, S100%10000m1002hPa73%
16-Apr-2024 03:00Light Rain20°C27 mph, S2%10000m1002hPa86%
16-Apr-2024 06:00Light Rain20°C27 mph, S37%10000m1000hPa80%
16-Apr-2024 09:00Few Clouds20°C25 mph, S14%10000m999hPa73%
16-Apr-2024 12:00Clear Sky17°C18 mph, SW7%10000m999hPa46%
16-Apr-2024 15:00Clear Sky21°C22 mph, SW0%10000m999hPa30%
16-Apr-2024 18:00Clear Sky25°C25 mph, W0%10000m1000hPa26%
16-Apr-2024 21:00Clear Sky29°C22 mph, W0%10000m998hPa18%
17-Apr-2024 00:00Clear Sky26°C25 mph, W1%10000m1000hPa30%
17-Apr-2024 03:00Clear Sky19°C16 mph, NW0%10000m1006hPa45%
17-Apr-2024 06:00Clear Sky14°C9 mph, W0%10000m1009hPa60%
17-Apr-2024 09:00Clear Sky13°C9 mph, NW0%10000m1010hPa66%
17-Apr-2024 12:00Clear Sky11°C7 mph, NW1%10000m1012hPa75%
17-Apr-2024 15:00Clear Sky19°C9 mph, NW4%10000m1013hPa50%
17-Apr-2024 18:00Clear Sky24°C7 mph, N2%10000m1013hPa34%
17-Apr-2024 21:00Clear Sky26°C2 mph, E0%10000m1010hPa30%
18-Apr-2024 00:00Clear Sky25°C7 mph, E0%10000m1010hPa41%
18-Apr-2024 03:00Clear Sky18°C11 mph, SE0%10000m1012hPa57%
18-Apr-2024 06:00Clear Sky17°C11 mph, SE0%10000m1011hPa62%
18-Apr-2024 09:00Clear Sky15°C11 mph, SE0%10000m1009hPa72%
18-Apr-2024 12:00Clear Sky13°C9 mph, SE0%10000m1009hPa85%
18-Apr-2024 15:00Clear Sky22°C4 mph, W2%10000m1009hPa54%
18-Apr-2024 18:00Clear Sky26°C13 mph, N5%10000m1010hPa39%
18-Apr-2024 21:00Scattered Clouds20°C27 mph, N45%10000m1013hPa52%
19-Apr-2024 00:00Scattered Clouds13°C22 mph, N48%10000m1018hPa63%
19-Apr-2024 03:00Scattered Clouds7°C16 mph, N33%10000m1022hPa76%
19-Apr-2024 06:00Broken Clouds6°C9 mph, N63%10000m1023hPa79%
19-Apr-2024 09:00Overcast Clouds6°C11 mph, N100%10000m1023hPa80%
19-Apr-2024 12:00Overcast Clouds6°C9 mph, N100%10000m1024hPa77%
19-Apr-2024 15:00Overcast Clouds12°C16 mph, NE100%10000m1024hPa42%
19-Apr-2024 18:00Overcast Clouds17°C13 mph, NE100%10000m1022hPa30%
19-Apr-2024 21:00Overcast Clouds18°C13 mph, E100%10000m1020hPa29%
20-Apr-2024 00:00Overcast Clouds16°C13 mph, E100%10000m1020hPa37%
20-Apr-2024 03:00Broken Clouds10°C9 mph, NE64%10000m1023hPa50%
20-Apr-2024 06:00Broken Clouds12°C11 mph, E82%10000m1023hPa44%
20-Apr-2024 09:00Overcast Clouds11°C11 mph, E100%10000m1023hPa47%
20-Apr-2024 12:00Overcast Clouds11°C11 mph, E100%10000m1024hPa46%
20-Apr-2024 15:00Overcast Clouds12°C18 mph, E100%10000m1024hPa42%